createdAt,value
2023-05-17T00:01:11.060Z,8.79
2023-05-17T00:03:56.505Z,8.76
2023-05-17T00:06:42.409Z,8.76
2023-05-17T00:09:27.825Z,8.78
2023-05-17T00:12:13.021Z,8.68
2023-05-17T00:14:58.912Z,8.70
2023-05-17T00:17:44.204Z,8.81
2023-05-17T00:20:29.499Z,8.78
2023-05-17T00:23:14.868Z,8.59
2023-05-17T00:26:00.293Z,8.50
2023-05-17T00:28:45.842Z,8.49
2023-05-17T00:31:31.014Z,8.34
2023-05-17T00:34:16.323Z,8.44
2023-05-17T00:37:01.419Z,8.47
2023-05-17T00:39:46.615Z,8.30
2023-05-17T00:42:31.848Z,7.85
2023-05-17T00:45:17.459Z,7.69
2023-05-17T00:48:02.999Z,7.27
2023-05-17T00:50:48.742Z,7.02
2023-05-17T00:53:34.162Z,6.84
2023-05-17T00:56:19.531Z,6.69
2023-05-17T00:59:06.557Z,6.72
2023-05-17T01:01:52.419Z,7.01
2023-05-17T01:04:38.684Z,7.19
2023-05-17T01:07:23.898Z,7.32
2023-05-17T01:10:09.818Z,7.09
2023-05-17T01:13:02.379Z,6.98
2023-05-17T01:15:57.184Z,6.92
2023-05-17T01:18:52.663Z,7.07
2023-05-17T01:22:02.525Z,7.25
2023-05-17T01:24:50.858Z,7.30
2023-05-17T01:27:39.772Z,7.39
2023-05-17T01:30:25.910Z,7.46
2023-05-17T01:33:12.429Z,7.53
2023-05-17T01:35:58.030Z,7.64
2023-05-17T01:38:43.216Z,7.65
2023-05-17T01:41:40.621Z,7.68
2023-05-17T01:44:37.726Z,7.73
2023-05-17T01:47:31.432Z,7.58
2023-05-17T01:50:19.664Z,7.49
2023-05-17T01:53:11.652Z,7.35
2023-05-17T01:56:10.445Z,7.37
2023-05-17T01:58:57.073Z,7.22
2023-05-17T02:01:42.767Z,7.35
2023-05-17T02:04:30.113Z,7.21
2023-05-17T02:07:15.675Z,7.22
2023-05-17T02:10:00.852Z,7.46
2023-05-17T02:12:46.336Z,7.38
2023-05-17T02:15:32.499Z,7.40
2023-05-17T02:18:17.559Z,7.34
2023-05-17T02:21:03.003Z,7.28
2023-05-17T02:23:48.255Z,7.45
2023-05-17T02:26:33.584Z,7.44
2023-05-17T02:29:18.962Z,7.23
2023-05-17T02:32:04.408Z,7.25
2023-05-17T02:34:49.847Z,7.28
2023-05-17T02:37:34.753Z,7.19
2023-05-17T02:40:20.574Z,7.29
2023-05-17T02:43:05.493Z,7.39
2023-05-17T02:45:50.965Z,7.41
2023-05-17T02:48:35.799Z,7.45
2023-05-17T02:51:21.150Z,7.48
2023-05-17T02:54:06.519Z,7.50
2023-05-17T02:56:52.036Z,7.58
2023-05-17T02:59:37.478Z,7.50
2023-05-17T03:02:22.881Z,7.49
2023-05-17T03:05:08.513Z,7.50
2023-05-17T03:07:53.404Z,7.48
2023-05-17T03:10:38.799Z,7.47
2023-05-17T03:13:24.029Z,7.42
2023-05-17T03:16:09.337Z,7.38
2023-05-17T03:18:54.925Z,7.49
2023-05-17T03:21:40.124Z,7.45
2023-05-17T03:24:25.366Z,7.16
2023-05-17T03:27:10.764Z,7.05
2023-05-17T03:29:56.027Z,6.95
2023-05-17T03:32:41.969Z,6.76
2023-05-17T03:35:27.321Z,6.59
2023-05-17T03:38:12.919Z,6.38
2023-05-17T03:40:58.455Z,6.44
2023-05-17T03:43:43.620Z,6.33
2023-05-17T03:46:29.069Z,6.34
2023-05-17T03:49:14.723Z,6.32
2023-05-17T03:51:59.697Z,6.33
2023-05-17T03:54:46.313Z,6.50
2023-05-17T03:57:33.388Z,6.62
2023-05-17T04:00:18.585Z,6.53
2023-05-17T04:03:03.841Z,6.50
2023-05-17T04:05:49.467Z,6.60
2023-05-17T04:08:35.137Z,6.72
2023-05-17T04:11:20.590Z,6.86
2023-05-17T04:14:06.164Z,6.94
2023-05-17T04:16:51.344Z,6.99
2023-05-17T04:19:36.726Z,7.02
2023-05-17T04:22:22.145Z,7.03
2023-05-17T04:25:07.937Z,7.05
2023-05-17T04:27:53.118Z,6.99
2023-05-17T04:30:43.172Z,6.90
2023-05-17T04:33:28.339Z,7.13
2023-05-17T04:36:13.599Z,7.18
2023-05-17T04:38:58.690Z,7.27
2023-05-17T04:41:43.980Z,7.39
2023-05-17T04:44:29.544Z,7.06
2023-05-17T04:47:14.824Z,7.21
2023-05-17T04:50:00.009Z,7.31
2023-05-17T04:52:48.521Z,7.51
2023-05-17T04:55:33.906Z,7.66
2023-05-17T04:58:19.182Z,7.77
2023-05-17T05:01:05.581Z,7.81
2023-05-17T05:03:50.597Z,7.94
2023-05-17T05:06:35.930Z,8.04
2023-05-17T05:09:21.385Z,8.09
2023-05-17T05:12:07.058Z,8.13
2023-05-17T05:14:52.432Z,8.13
2023-05-17T05:17:37.906Z,8.14
2023-05-17T05:20:24.669Z,8.21
2023-05-17T05:23:11.695Z,8.01
2023-05-17T05:25:57.234Z,8.13
2023-05-17T05:28:42.599Z,8.07
2023-05-17T05:31:28.140Z,8.25
2023-05-17T05:34:13.513Z,8.33
2023-05-17T05:36:58.714Z,8.40
2023-05-17T05:39:44.040Z,8.52
2023-05-17T05:42:29.424Z,8.58
2023-05-17T05:45:14.548Z,8.63
2023-05-17T05:47:59.891Z,8.78
2023-05-17T05:50:45.367Z,8.78
2023-05-17T05:53:30.422Z,8.87
2023-05-17T05:56:15.689Z,9.04
2023-05-17T05:59:01.136Z,9.16
2023-05-17T06:01:46.846Z,9.22
2023-05-17T06:04:43.805Z,9.25
2023-05-17T06:07:29.964Z,9.29
2023-05-17T06:10:14.906Z,9.29
2023-05-17T06:13:00.362Z,9.33
2023-05-17T06:15:45.540Z,9.34
2023-05-17T06:18:30.832Z,9.61
2023-05-17T06:21:16.325Z,9.93
2023-05-17T06:24:02.875Z,10.03
2023-05-17T06:26:50.018Z,10.30
2023-05-17T06:29:35.786Z,10.57
2023-05-17T06:32:20.666Z,10.45
2023-05-17T06:35:06.652Z,10.42
2023-05-17T06:37:52.049Z,10.80
2023-05-17T06:40:37.279Z,10.95
2023-05-17T06:43:23.036Z,10.41
2023-05-17T06:46:08.662Z,10.84
2023-05-17T06:48:54.034Z,10.89
2023-05-17T06:51:39.585Z,10.81
2023-05-17T06:54:25.041Z,10.72
2023-05-17T06:57:10.198Z,10.68
2023-05-17T06:59:55.590Z,10.35
2023-05-17T07:02:41.015Z,10.30
2023-05-17T07:05:26.592Z,10.07
2023-05-17T07:08:11.431Z,10.16
2023-05-17T07:10:57.154Z,10.52
2023-05-17T07:13:42.447Z,10.65
2023-05-17T07:16:27.935Z,10.91
2023-05-17T07:19:13.494Z,10.75
2023-05-17T07:21:58.810Z,10.46
2023-05-17T07:24:44.635Z,10.21
2023-05-17T07:27:30.243Z,10.36
2023-05-17T07:30:15.265Z,10.05
2023-05-17T07:33:00.838Z,10.14
2023-05-17T07:35:46.164Z,10.02
2023-05-17T07:38:31.905Z,10.40
2023-05-17T07:41:17.044Z,10.93
2023-05-17T07:44:02.317Z,11.47
2023-05-17T07:46:49.943Z,11.92
2023-05-17T07:49:34.997Z,11.75
2023-05-17T07:52:20.362Z,11.73
2023-05-17T07:55:05.742Z,11.74
2023-05-17T07:57:51.071Z,11.61
2023-05-17T08:00:36.434Z,11.17
2023-05-17T08:03:21.455Z,10.88
2023-05-17T08:06:07.075Z,10.61
2023-05-17T08:08:52.318Z,10.95
2023-05-17T08:11:37.580Z,11.80
2023-05-17T08:14:23.806Z,12.25
2023-05-17T08:17:09.377Z,11.77
2023-05-17T08:19:54.888Z,11.91
2023-05-17T08:22:40.067Z,12.53
2023-05-17T08:25:25.612Z,12.66
2023-05-17T08:28:10.648Z,12.65
2023-05-17T08:30:55.696Z,11.87
2023-05-17T08:33:41.324Z,11.53
2023-05-17T08:36:26.573Z,11.70
2023-05-17T08:39:11.998Z,11.93
2023-05-17T08:41:57.387Z,12.66
2023-05-17T08:44:42.384Z,13.44
2023-05-17T08:47:28.978Z,13.89
2023-05-17T08:50:13.870Z,14.40
2023-05-17T08:52:59.611Z,14.91
2023-05-17T08:55:46.955Z,13.86
2023-05-17T08:58:47.984Z,14.01
2023-05-17T09:01:42.812Z,13.68
2023-05-17T09:04:29.656Z,13.63
2023-05-17T09:07:17.183Z,13.36
2023-05-17T09:10:02.699Z,12.79
2023-05-17T09:12:48.537Z,13.02
2023-05-17T09:15:33.594Z,13.33
2023-05-17T09:18:19.611Z,13.77
2023-05-17T09:21:05.386Z,13.72
2023-05-17T09:24:05.509Z,13.15
2023-05-17T09:26:52.321Z,13.08
2023-05-17T09:29:39.385Z,13.34
2023-05-17T09:32:24.448Z,13.90
2023-05-17T09:35:10.333Z,14.38
2023-05-17T09:38:10.167Z,14.87
2023-05-17T09:40:55.470Z,13.86
2023-05-17T09:43:40.801Z,13.80
2023-05-17T09:46:26.034Z,13.60
2023-05-17T09:49:11.297Z,13.60
2023-05-17T09:51:56.678Z,13.39
2023-05-17T09:54:41.647Z,13.04
2023-05-17T09:57:29.017Z,13.05
2023-05-17T10:00:15.940Z,12.86
2023-05-17T10:03:03.810Z,12.64
2023-05-17T10:05:51.604Z,12.72
2023-05-17T10:08:38.450Z,12.92
2023-05-17T10:11:30.212Z,13.58
2023-05-17T10:14:18.816Z,14.35
2023-05-17T10:17:04.561Z,14.51
2023-05-17T10:19:50.956Z,14.92
2023-05-17T10:22:37.538Z,14.31
2023-05-17T10:25:23.789Z,13.37
2023-05-17T10:28:10.982Z,12.96
2023-05-17T10:30:58.961Z,12.98
2023-05-17T10:33:47.191Z,13.18
2023-05-17T10:36:33.790Z,12.95
2023-05-17T10:39:21.428Z,12.96
2023-05-17T10:42:14.657Z,13.14
2023-05-17T10:45:01.607Z,13.54
2023-05-17T10:47:46.581Z,14.31
2023-05-17T10:50:32.334Z,14.71
2023-05-17T10:53:17.815Z,14.50
2023-05-17T10:56:03.365Z,13.47
2023-05-17T10:58:48.694Z,13.79
2023-05-17T11:01:53.646Z,13.61
2023-05-17T11:04:50.173Z,13.77
2023-05-17T11:07:35.623Z,14.13
2023-05-17T11:10:21.481Z,14.29
2023-05-17T11:13:25.284Z,14.45
2023-05-17T11:16:10.545Z,14.46
2023-05-17T11:19:06.259Z,13.89
2023-05-17T11:21:51.752Z,13.93
2023-05-17T11:24:42.182Z,13.93
2023-05-17T11:27:35.665Z,13.93
2023-05-17T11:30:34.400Z,14.04
2023-05-17T11:33:32.324Z,13.67
2023-05-17T11:36:20.508Z,13.71
2023-05-17T11:39:13.830Z,13.81
2023-05-17T11:41:58.972Z,13.85
2023-05-17T11:44:44.430Z,13.73
2023-05-17T11:47:30.098Z,13.98
2023-05-17T11:50:15.471Z,14.09
2023-05-17T11:53:00.841Z,14.35
2023-05-17T11:55:51.019Z,14.31
2023-05-17T11:58:36.946Z,14.95
2023-05-17T12:01:22.091Z,14.62
2023-05-17T12:04:07.542Z,14.30
2023-05-17T12:06:56.487Z,15.18
2023-05-17T12:09:44.736Z,15.17
2023-05-17T12:12:30.317Z,15.93
2023-05-17T12:15:19.031Z,16.05
2023-05-17T12:18:04.524Z,15.77
2023-05-17T12:20:53.962Z,14.88
2023-05-17T12:23:41.040Z,15.38
2023-05-17T12:26:26.487Z,14.91
2023-05-17T12:29:12.890Z,15.31
2023-05-17T12:31:59.318Z,15.43
2023-05-17T12:34:45.364Z,16.07
2023-05-17T12:37:30.663Z,15.77
2023-05-17T12:40:15.647Z,15.72
2023-05-17T12:43:02.390Z,14.92
2023-05-17T12:45:47.763Z,15.64
2023-05-17T12:48:38.192Z,16.87
2023-05-17T12:51:23.838Z,16.96
2023-05-17T12:54:09.133Z,16.35
2023-05-17T12:56:54.524Z,17.10
2023-05-17T12:59:47.322Z,17.00
2023-05-17T13:02:32.593Z,16.85
2023-05-17T13:05:18.457Z,15.94
2023-05-17T13:08:20.072Z,15.97
2023-05-17T13:11:10.035Z,15.16
2023-05-17T13:13:55.287Z,14.05
2023-05-17T13:16:40.898Z,14.85
2023-05-17T13:19:26.609Z,15.05
2023-05-17T13:22:11.813Z,16.05
2023-05-17T13:24:56.946Z,16.04
2023-05-17T13:27:42.381Z,15.86
2023-05-17T13:30:27.767Z,15.29
2023-05-17T13:33:13.062Z,14.77
2023-05-17T13:35:58.564Z,14.79
2023-05-17T13:38:43.760Z,15.10
2023-05-17T13:41:29.289Z,15.39
2023-05-17T13:44:15.187Z,15.58
2023-05-17T13:47:00.559Z,15.25
2023-05-17T13:49:45.861Z,15.15
2023-05-17T13:52:31.233Z,15.19
2023-05-17T13:55:16.598Z,15.05
2023-05-17T13:58:01.624Z,15.27
2023-05-17T14:00:46.935Z,15.29
2023-05-17T14:03:32.448Z,15.21
2023-05-17T14:06:18.333Z,14.86
2023-05-17T14:09:03.736Z,14.72
2023-05-17T14:11:49.208Z,14.58
2023-05-17T14:14:34.610Z,14.57
2023-05-17T14:17:19.508Z,14.34
2023-05-17T14:20:05.680Z,14.35
2023-05-17T14:22:50.874Z,13.79
2023-05-17T14:25:37.559Z,13.59
2023-05-17T14:28:22.897Z,13.51
2023-05-17T14:31:09.296Z,13.98
2023-05-17T14:33:54.588Z,13.90
2023-05-17T14:36:40.158Z,13.97
2023-05-17T14:39:25.584Z,14.12
2023-05-17T14:42:11.014Z,13.53
2023-05-17T14:44:56.457Z,13.70
2023-05-17T14:47:41.654Z,13.65
2023-05-17T14:50:27.302Z,13.81
2023-05-17T14:53:12.904Z,14.09
2023-05-17T14:55:58.460Z,14.05
2023-05-17T14:58:43.609Z,14.19
2023-05-17T15:01:29.012Z,14.06
2023-05-17T15:04:14.441Z,14.08
2023-05-17T15:06:59.784Z,14.24
2023-05-17T15:09:45.036Z,13.85
2023-05-17T15:12:30.730Z,13.60
2023-05-17T15:15:15.913Z,13.58
2023-05-17T15:18:01.092Z,13.87
2023-05-17T15:20:46.424Z,14.13
2023-05-17T15:23:31.727Z,13.66
2023-05-17T15:26:17.122Z,13.92
2023-05-17T15:29:02.143Z,14.26
2023-05-17T15:31:47.461Z,14.43
2023-05-17T15:34:32.723Z,13.87
2023-05-17T15:37:17.563Z,13.76
2023-05-17T15:40:10.226Z,14.21
2023-05-17T15:42:55.477Z,14.24
2023-05-17T15:45:40.627Z,14.38
2023-05-17T15:48:25.882Z,13.77
2023-05-17T15:51:11.097Z,13.59
2023-05-17T15:53:56.512Z,13.73
2023-05-17T15:56:41.356Z,13.96
2023-05-17T15:59:26.130Z,13.75
2023-05-17T16:02:11.493Z,13.90
2023-05-17T16:04:56.775Z,13.57
2023-05-17T16:07:41.641Z,13.50
2023-05-17T16:10:27.166Z,13.62
2023-05-17T16:13:12.571Z,13.46
2023-05-17T16:15:58.536Z,13.56
2023-05-17T16:18:43.698Z,13.78
2023-05-17T16:21:29.354Z,13.77
2023-05-17T16:24:14.677Z,12.99
2023-05-17T16:27:00.141Z,12.65
2023-05-17T16:29:45.027Z,12.47
2023-05-17T16:32:30.525Z,12.46
2023-05-17T16:35:16.679Z,12.54
2023-05-17T16:38:01.618Z,12.67
2023-05-17T16:40:47.184Z,12.68
2023-05-17T16:43:32.403Z,12.56
2023-05-17T16:46:17.651Z,12.53
2023-05-17T16:49:02.992Z,12.59
2023-05-17T16:51:48.024Z,12.79
2023-05-17T16:54:34.703Z,12.61
2023-05-17T16:57:19.997Z,12.83
2023-05-17T17:00:06.025Z,13.01
2023-05-17T17:02:51.286Z,13.11
2023-05-17T17:05:36.736Z,12.77
2023-05-17T17:08:22.082Z,12.82
2023-05-17T17:11:07.060Z,12.90
2023-05-17T17:13:52.258Z,12.94
2023-05-17T17:16:38.248Z,12.92
2023-05-17T17:19:23.579Z,12.70
2023-05-17T17:22:08.927Z,12.65
2023-05-17T17:24:53.839Z,12.53
2023-05-17T17:27:39.232Z,12.54
2023-05-17T17:30:24.668Z,12.42
2023-05-17T17:33:09.988Z,12.19
2023-05-17T17:35:55.703Z,12.19
2023-05-17T17:38:40.829Z,12.02
2023-05-17T17:41:25.712Z,12.00
2023-05-17T17:44:11.055Z,12.04
2023-05-17T17:46:56.023Z,12.08
2023-05-17T17:49:41.358Z,12.01
2023-05-17T17:52:26.781Z,12.08
2023-05-17T17:55:12.101Z,11.88
2023-05-17T17:57:56.865Z,11.89
2023-05-17T18:00:41.736Z,11.72
2023-05-17T18:03:27.248Z,11.85
2023-05-17T18:06:12.694Z,11.85
2023-05-17T18:08:57.649Z,11.92
2023-05-17T18:11:42.980Z,11.86
2023-05-17T18:14:28.040Z,11.77
2023-05-17T18:17:13.424Z,11.83
2023-05-17T18:19:58.340Z,11.90
2023-05-17T18:22:43.877Z,11.82
2023-05-17T18:25:29.192Z,11.78
2023-05-17T18:28:14.597Z,11.78
2023-05-17T18:30:59.862Z,11.85
2023-05-17T18:33:45.753Z,11.66
2023-05-17T18:36:30.750Z,11.82
2023-05-17T18:39:16.276Z,11.85
2023-05-17T18:42:01.564Z,11.76
2023-05-17T18:44:47.252Z,11.66
2023-05-17T18:47:32.443Z,11.76
2023-05-17T18:50:17.769Z,11.79
2023-05-17T18:53:03.128Z,11.74
2023-05-17T18:55:48.510Z,11.74
2023-05-17T18:58:33.377Z,11.67
2023-05-17T19:01:18.612Z,11.69
2023-05-17T19:04:03.768Z,11.53
2023-05-17T19:06:49.028Z,11.49
2023-05-17T19:09:34.014Z,11.37
2023-05-17T19:12:19.222Z,11.28
2023-05-17T19:15:04.860Z,11.20
2023-05-17T19:17:50.267Z,11.10
2023-05-17T19:20:35.684Z,11.13
2023-05-17T19:23:20.918Z,11.05
2023-05-17T19:26:05.913Z,10.89
2023-05-17T19:28:50.757Z,10.91
2023-05-17T19:31:36.138Z,10.76
2023-05-17T19:34:21.618Z,10.72
2023-05-17T19:37:06.591Z,10.69
2023-05-17T19:39:52.100Z,10.54
2023-05-17T19:42:37.005Z,10.48
2023-05-17T19:45:22.369Z,10.44
2023-05-17T19:48:07.875Z,10.36
2023-05-17T19:50:54.964Z,10.39
2023-05-17T19:53:52.421Z,10.43
2023-05-17T19:56:38.329Z,10.25
2023-05-17T19:59:23.279Z,10.28
2023-05-17T20:02:08.173Z,10.26
2023-05-17T20:04:53.032Z,10.09
2023-05-17T20:07:37.905Z,10.19
2023-05-17T20:10:22.884Z,10.26
2023-05-17T20:13:07.774Z,10.21
2023-05-17T20:15:52.753Z,10.15
2023-05-17T20:18:42.273Z,10.06
2023-05-17T20:21:27.856Z,9.91
2023-05-17T20:24:13.096Z,9.95
2023-05-17T20:26:57.926Z,9.88
2023-05-17T20:29:43.345Z,9.85
2023-05-17T20:32:29.131Z,10.00
2023-05-17T20:35:14.188Z,9.85
2023-05-17T20:37:59.443Z,9.70
2023-05-17T20:40:44.839Z,9.49
2023-05-17T20:43:30.150Z,9.32
2023-05-17T20:46:16.172Z,9.28
2023-05-17T20:49:01.215Z,9.21
2023-05-17T20:51:46.833Z,9.13
2023-05-17T20:54:31.859Z,9.09
2023-05-17T20:57:16.973Z,9.01
2023-05-17T21:00:03.243Z,8.96
2023-05-17T21:02:48.714Z,8.91
2023-05-17T21:05:33.970Z,8.86
2023-05-17T21:08:19.337Z,8.80
2023-05-17T21:11:04.518Z,8.77
2023-05-17T21:13:50.046Z,8.87
2023-05-17T21:16:35.207Z,8.74
2023-05-17T21:19:20.670Z,8.63
2023-05-17T21:22:05.831Z,8.66
2023-05-17T21:24:52.180Z,8.68
2023-05-17T21:27:38.089Z,8.62
2023-05-17T21:30:23.875Z,8.62
2023-05-17T21:33:08.955Z,8.44
2023-05-17T21:35:54.094Z,8.44
2023-05-17T21:38:39.673Z,8.50
2023-05-17T21:41:24.850Z,8.31
2023-05-17T21:44:09.837Z,8.38
2023-05-17T21:46:56.882Z,8.33
2023-05-17T21:49:42.184Z,8.27
2023-05-17T21:52:27.219Z,8.31
2023-05-17T21:55:11.976Z,8.29
2023-05-17T21:57:57.049Z,8.26
2023-05-17T22:00:42.421Z,8.35
2023-05-17T22:03:27.570Z,8.32
2023-05-17T22:06:12.764Z,8.26
2023-05-17T22:08:58.024Z,8.20
2023-05-17T22:11:42.873Z,8.17
2023-05-17T22:14:28.487Z,8.28
2023-05-17T22:17:13.719Z,8.26
2023-05-17T22:20:01.308Z,8.21
2023-05-17T22:22:46.212Z,8.07
2023-05-17T22:25:31.091Z,8.03
2023-05-17T22:28:16.562Z,8.07
2023-05-17T22:31:02.396Z,8.05
2023-05-17T22:33:50.376Z,8.11
2023-05-17T22:36:35.384Z,8.08
2023-05-17T22:39:20.778Z,8.23
2023-05-17T22:42:07.338Z,8.17
2023-05-17T22:44:52.434Z,8.18
2023-05-17T22:47:38.172Z,8.19
2023-05-17T22:50:23.447Z,8.22
2023-05-17T22:53:09.080Z,8.07
2023-05-17T22:55:54.393Z,7.95
2023-05-17T22:58:39.488Z,7.63
2023-05-17T23:01:24.992Z,7.55
2023-05-17T23:04:10.238Z,7.47
2023-05-17T23:06:56.976Z,7.39
2023-05-17T23:09:42.501Z,7.46
2023-05-17T23:12:27.301Z,7.49
2023-05-17T23:15:12.858Z,7.32
2023-05-17T23:17:58.267Z,7.24
2023-05-17T23:20:44.305Z,7.13
2023-05-17T23:23:29.866Z,7.13
2023-05-17T23:26:14.794Z,7.12
2023-05-17T23:28:59.913Z,7.10
2023-05-17T23:31:45.197Z,6.90
2023-05-17T23:34:30.672Z,6.80
2023-05-17T23:37:16.861Z,6.79
2023-05-17T23:40:03.218Z,6.66
2023-05-17T23:42:48.587Z,6.71
2023-05-17T23:45:33.490Z,6.69
2023-05-17T23:48:18.957Z,6.61
2023-05-17T23:51:04.659Z,6.64
2023-05-17T23:53:49.827Z,6.68
2023-05-17T23:56:34.912Z,6.49
2023-05-17T23:59:20.411Z,6.46
